sensor_id;sensor_type;location;lat;lon;timestamp;pressure;altitude;pressure_sealevel;temperature;humidity
52935;BME280;38802;50.198;19.796;2023-02-19T00:01:34;95781.23;;;4.51;98.56
52935;BME280;38802;50.198;19.796;2023-02-19T00:04:04;95774.58;;;4.53;98.56
52935;BME280;38802;50.198;19.796;2023-02-19T00:06:33;95774.41;;;4.50;98.57
52935;BME280;38802;50.198;19.796;2023-02-19T00:09:00;95771.21;;;4.49;98.61
52935;BME280;38802;50.198;19.796;2023-02-19T00:11:29;95778.14;;;4.46;98.46
52935;BME280;38802;50.198;19.796;2023-02-19T00:13:57;95794.94;;;4.44;98.56
52935;BME280;38802;50.198;19.796;2023-02-19T00:16:27;95801.39;;;4.43;98.49
52935;BME280;38802;50.198;19.796;2023-02-19T00:18:56;95808.65;;;4.42;98.53
52935;BME280;38802;50.198;19.796;2023-02-19T00:21:23;95804.33;;;4.43;98.57
52935;BME280;38802;50.198;19.796;2023-02-19T00:23:52;95804.90;;;4.42;98.31
52935;BME280;38802;50.198;19.796;2023-02-19T00:26:19;95796.15;;;4.41;98.43
52935;BME280;38802;50.198;19.796;2023-02-19T00:28:48;95792.45;;;4.43;98.47
52935;BME280;38802;50.198;19.796;2023-02-19T00:33:44;95792.95;;;4.46;98.39
52935;BME280;38802;50.198;19.796;2023-02-19T00:36:12;95796.55;;;4.40;98.15
52935;BME280;38802;50.198;19.796;2023-02-19T00:38:40;95799.81;;;4.40;98.26
52935;BME280;38802;50.198;19.796;2023-02-19T00:41:08;95798.77;;;4.38;98.03
52935;BME280;38802;50.198;19.796;2023-02-19T00:43:45;95794.79;;;4.33;97.88
52935;BME280;38802;50.198;19.796;2023-02-19T00:46:14;95789.02;;;4.32;97.85
52935;BME280;38802;50.198;19.796;2023-02-19T00:48:41;95787.61;;;4.29;97.82
52935;BME280;38802;50.198;19.796;2023-02-19T00:51:08;95784.70;;;4.32;97.98
52935;BME280;38802;50.198;19.796;2023-02-19T00:53:35;95780.16;;;4.33;97.85
52935;BME280;38802;50.198;19.796;2023-02-19T00:56:02;95784.38;;;4.34;97.91
52935;BME280;38802;50.198;19.796;2023-02-19T00:58:29;95791.64;;;4.36;97.91
52935;BME280;38802;50.198;19.796;2023-02-19T01:00:56;95790.20;;;4.37;98.02
52935;BME280;38802;50.198;19.796;2023-02-19T01:03:23;95781.73;;;4.38;98.02
52935;BME280;38802;50.198;19.796;2023-02-19T01:05:51;95776.06;;;4.38;97.91
52935;BME280;38802;50.198;19.796;2023-02-19T01:08:18;95772.73;;;4.36;97.89
52935;BME280;38802;50.198;19.796;2023-02-19T01:10:45;95771.41;;;4.36;97.90
52935;BME280;38802;50.198;19.796;2023-02-19T01:13:11;95778.17;;;4.35;97.91
52935;BME280;38802;50.198;19.796;2023-02-19T01:15:38;95774.09;;;4.34;97.87
52935;BME280;38802;50.198;19.796;2023-02-19T01:18:05;95769.81;;;4.33;97.76
52935;BME280;38802;50.198;19.796;2023-02-19T01:20:32;95772.88;;;4.31;97.79
52935;BME280;38802;50.198;19.796;2023-02-19T01:22:59;95767.94;;;4.28;97.64
52935;BME280;38802;50.198;19.796;2023-02-19T01:25:26;95770.64;;;4.26;97.64
52935;BME280;38802;50.198;19.796;2023-02-19T01:27:53;95769.42;;;4.26;97.63
52935;BME280;38802;50.198;19.796;2023-02-19T01:30:19;95774.04;;;4.26;97.52
52935;BME280;38802;50.198;19.796;2023-02-19T01:32:46;95768.40;;;4.23;97.54
52935;BME280;38802;50.198;19.796;2023-02-19T01:35:12;95767.98;;;4.19;97.52
52935;BME280;38802;50.198;19.796;2023-02-19T01:37:39;95768.09;;;4.18;97.47
52935;BME280;38802;50.198;19.796;2023-02-19T01:40:06;95764.28;;;4.16;97.26
52935;BME280;38802;50.198;19.796;2023-02-19T01:42:33;95763.19;;;4.14;97.34
52935;BME280;38802;50.198;19.796;2023-02-19T01:47:54;95759.48;;;4.10;97.35
52935;BME280;38802;50.198;19.796;2023-02-19T01:50:25;95750.55;;;4.13;97.41
52935;BME280;38802;50.198;19.796;2023-02-19T01:52:54;95746.28;;;4.12;97.31
52935;BME280;38802;50.198;19.796;2023-02-19T01:55:21;95743.52;;;4.12;97.39
52935;BME280;38802;50.198;19.796;2023-02-19T01:57:51;95747.52;;;4.14;97.49
52935;BME280;38802;50.198;19.796;2023-02-19T02:00:19;95751.75;;;4.15;97.55
52935;BME280;38802;50.198;19.796;2023-02-19T02:02:48;95752.88;;;4.16;97.59
52935;BME280;38802;50.198;19.796;2023-02-19T02:08:13;95746.45;;;4.28;97.83
52935;BME280;38802;50.198;19.796;2023-02-19T02:10:59;95745.23;;;4.28;98.03
52935;BME280;38802;50.198;19.796;2023-02-19T02:13:26;95745.20;;;4.26;98.01
52935;BME280;38802;50.198;19.796;2023-02-19T02:16:21;95744.23;;;4.28;97.90
52935;BME280;38802;50.198;19.796;2023-02-19T02:18:58;95741.92;;;4.29;97.97
52935;BME280;38802;50.198;19.796;2023-02-19T02:21:58;95747.86;;;4.25;98.03
52935;BME280;38802;50.198;19.796;2023-02-19T02:24:40;95740.78;;;4.25;98.13
52935;BME280;38802;50.198;19.796;2023-02-19T02:27:21;95741.10;;;4.23;98.06
52935;BME280;38802;50.198;19.796;2023-02-19T02:30:10;95733.70;;;4.25;98.08
52935;BME280;38802;50.198;19.796;2023-02-19T02:32:50;95729.67;;;4.22;98.10
52935;BME280;38802;50.198;19.796;2023-02-19T02:35:27;95726.45;;;4.23;98.02
52935;BME280;38802;50.198;19.796;2023-02-19T02:38:01;95725.58;;;4.26;98.06
52935;BME280;38802;50.198;19.796;2023-02-19T02:40:30;95723.66;;;4.24;98.18
52935;BME280;38802;50.198;19.796;2023-02-19T02:42:59;95724.73;;;4.24;97.95
52935;BME280;38802;50.198;19.796;2023-02-19T02:45:30;95722.40;;;4.25;98.24
52935;BME280;38802;50.198;19.796;2023-02-19T02:50:56;95726.73;;;4.24;98.12
52935;BME280;38802;50.198;19.796;2023-02-19T02:53:49;95721.91;;;4.27;98.36
52935;BME280;38802;50.198;19.796;2023-02-19T02:56:36;95727.73;;;4.27;98.11
52935;BME280;38802;50.198;19.796;2023-02-19T02:59:05;95730.44;;;4.23;98.05
52935;BME280;38802;50.198;19.796;2023-02-19T03:01:35;95731.62;;;4.23;97.96
52935;BME280;38802;50.198;19.796;2023-02-19T03:07:06;95728.44;;;4.24;98.08
52935;BME280;38802;50.198;19.796;2023-02-19T03:09:39;95725.90;;;4.21;98.12
52935;BME280;38802;50.198;19.796;2023-02-19T03:12:13;95723.73;;;4.23;98.30
52935;BME280;38802;50.198;19.796;2023-02-19T03:15:02;95723.01;;;4.21;98.11
52935;BME280;38802;50.198;19.796;2023-02-19T03:17:57;95721.77;;;4.24;98.31
52935;BME280;38802;50.198;19.796;2023-02-19T03:20:47;95727.92;;;4.22;98.15
52935;BME280;38802;50.198;19.796;2023-02-19T03:23:17;95727.58;;;4.22;98.31
52935;BME280;38802;50.198;19.796;2023-02-19T03:25:45;95724.29;;;4.22;98.10
52935;BME280;38802;50.198;19.796;2023-02-19T03:28:38;95721.70;;;4.25;98.26
52935;BME280;38802;50.198;19.796;2023-02-19T03:31:27;95721.14;;;4.26;98.14
52935;BME280;38802;50.198;19.796;2023-02-19T03:34:00;95716.95;;;4.27;98.16
52935;BME280;38802;50.198;19.796;2023-02-19T03:36:49;95717.23;;;4.28;98.13
52935;BME280;38802;50.198;19.796;2023-02-19T03:39:20;95711.67;;;4.28;98.24
52935;BME280;38802;50.198;19.796;2023-02-19T03:44:26;95707.52;;;4.29;98.43
52935;BME280;38802;50.198;19.796;2023-02-19T03:54:51;95706.92;;;4.33;98.38
52935;BME280;38802;50.198;19.796;2023-02-19T04:00:19;95708.24;;;4.33;98.53
52935;BME280;38802;50.198;19.796;2023-02-19T04:03:06;95700.60;;;4.32;98.46
52935;BME280;38802;50.198;19.796;2023-02-19T04:05:39;95700.02;;;4.33;98.57
52935;BME280;38802;50.198;19.796;2023-02-19T04:08:13;95695.09;;;4.32;98.68
52935;BME280;38802;50.198;19.796;2023-02-19T04:10:46;95696.14;;;4.35;98.54
52935;BME280;38802;50.198;19.796;2023-02-19T04:13:25;95685.44;;;4.35;98.73
52935;BME280;38802;50.198;19.796;2023-02-19T04:15:56;95680.96;;;4.32;98.68
52935;BME280;38802;50.198;19.796;2023-02-19T04:18:30;95674.41;;;4.33;98.77
52935;BME280;38802;50.198;19.796;2023-02-19T04:20:58;95673.23;;;4.32;98.73
52935;BME280;38802;50.198;19.796;2023-02-19T04:23:28;95669.38;;;4.33;98.65
52935;BME280;38802;50.198;19.796;2023-02-19T04:25:58;95667.35;;;4.33;98.75
52935;BME280;38802;50.198;19.796;2023-02-19T04:28:27;95655.97;;;4.33;98.90
52935;BME280;38802;50.198;19.796;2023-02-19T04:30:54;95653.80;;;4.32;98.70
52935;BME280;38802;50.198;19.796;2023-02-19T04:33:20;95655.28;;;4.31;98.85
52935;BME280;38802;50.198;19.796;2023-02-19T04:35:47;95653.02;;;4.31;98.88
52935;BME280;38802;50.198;19.796;2023-02-19T04:38:14;95656.77;;;4.29;98.87
52935;BME280;38802;50.198;19.796;2023-02-19T04:40:41;95655.17;;;4.27;98.90
52935;BME280;38802;50.198;19.796;2023-02-19T04:43:07;95656.15;;;4.28;99.05
52935;BME280;38802;50.198;19.796;2023-02-19T04:45:36;95662.26;;;4.27;99.00
52935;BME280;38802;50.198;19.796;2023-02-19T04:48:03;95656.10;;;4.31;98.98
52935;BME280;38802;50.198;19.796;2023-02-19T04:50:30;95657.67;;;4.29;99.03
52935;BME280;38802;50.198;19.796;2023-02-19T04:52:57;95657.88;;;4.28;99.06
52935;BME280;38802;50.198;19.796;2023-02-19T04:55:24;95656.33;;;4.26;99.06
52935;BME280;38802;50.198;19.796;2023-02-19T04:57:50;95649.40;;;4.26;99.08
52935;BME280;38802;50.198;19.796;2023-02-19T05:00:17;95650.26;;;4.23;99.00
52935;BME280;38802;50.198;19.796;2023-02-19T05:02:43;95649.66;;;4.22;99.08
52935;BME280;38802;50.198;19.796;2023-02-19T05:05:10;95649.52;;;4.22;99.06
52935;BME280;38802;50.198;19.796;2023-02-19T05:07:36;95647.54;;;4.23;99.12
52935;BME280;38802;50.198;19.796;2023-02-19T05:10:03;95644.22;;;4.21;99.10
52935;BME280;38802;50.198;19.796;2023-02-19T05:12:30;95638.07;;;4.21;99.19
52935;BME280;38802;50.198;19.796;2023-02-19T05:14:57;95634.36;;;4.20;99.23
52935;BME280;38802;50.198;19.796;2023-02-19T05:17:23;95630.84;;;4.19;99.22
52935;BME280;38802;50.198;19.796;2023-02-19T05:19:50;95627.81;;;4.20;99.31
52935;BME280;38802;50.198;19.796;2023-02-19T05:22:17;95623.05;;;4.19;99.42
52935;BME280;38802;50.198;19.796;2023-02-19T05:24:44;95616.23;;;4.18;99.25
52935;BME280;38802;50.198;19.796;2023-02-19T05:27:11;95612.08;;;4.19;99.41
52935;BME280;38802;50.198;19.796;2023-02-19T05:29:37;95610.27;;;4.18;99.43
52935;BME280;38802;50.198;19.796;2023-02-19T05:32:04;95614.83;;;4.19;99.41
52935;BME280;38802;50.198;19.796;2023-02-19T05:34:31;95612.71;;;4.17;99.44
52935;BME280;38802;50.198;19.796;2023-02-19T05:36:57;95607.55;;;4.15;99.26
52935;BME280;38802;50.198;19.796;2023-02-19T05:39:24;95605.08;;;4.16;99.32
52935;BME280;38802;50.198;19.796;2023-02-19T05:41:51;95607.44;;;4.16;99.33
52935;BME280;38802;50.198;19.796;2023-02-19T05:44:18;95607.10;;;4.16;99.40
52935;BME280;38802;50.198;19.796;2023-02-19T05:46:44;95602.33;;;4.18;99.54
52935;BME280;38802;50.198;19.796;2023-02-19T05:49:11;95602.89;;;4.18;99.33
52935;BME280;38802;50.198;19.796;2023-02-19T05:51:38;95594.52;;;4.19;99.35
52935;BME280;38802;50.198;19.796;2023-02-19T05:54:04;95595.21;;;4.22;99.32
52935;BME280;38802;50.198;19.796;2023-02-19T05:56:39;95599.17;;;4.21;99.26
52935;BME280;38802;50.198;19.796;2023-02-19T05:59:18;95596.34;;;4.23;99.51
52935;BME280;38802;50.198;19.796;2023-02-19T06:01:46;95599.02;;;4.24;99.27
52935;BME280;38802;50.198;19.796;2023-02-19T06:04:13;95601.33;;;4.25;99.45
52935;BME280;38802;50.198;19.796;2023-02-19T06:06:41;95606.14;;;4.25;99.58
52935;BME280;38802;50.198;19.796;2023-02-19T06:09:08;95603.33;;;4.26;99.55
52935;BME280;38802;50.198;19.796;2023-02-19T06:11:36;95595.63;;;4.28;99.42
52935;BME280;38802;50.198;19.796;2023-02-19T06:14:04;95594.37;;;4.29;99.45
52935;BME280;38802;50.198;19.796;2023-02-19T06:16:32;95589.63;;;4.30;99.55
52935;BME280;38802;50.198;19.796;2023-02-19T06:19:03;95585.87;;;4.33;99.54
52935;BME280;38802;50.198;19.796;2023-02-19T06:21:30;95588.92;;;4.36;99.71
52935;BME280;38802;50.198;19.796;2023-02-19T06:23:57;95591.07;;;4.37;99.62
52935;BME280;38802;50.198;19.796;2023-02-19T06:26:24;95577.27;;;4.38;99.76
52935;BME280;38802;50.198;19.796;2023-02-19T06:28:52;95580.09;;;4.39;99.79
52935;BME280;38802;50.198;19.796;2023-02-19T06:31:20;95581.81;;;4.42;99.82
52935;BME280;38802;50.198;19.796;2023-02-19T06:33:47;95581.95;;;4.43;99.78
52935;BME280;38802;50.198;19.796;2023-02-19T06:36:17;95586.38;;;4.46;99.75
52935;BME280;38802;50.198;19.796;2023-02-19T06:38:44;95589.53;;;4.50;99.97
52935;BME280;38802;50.198;19.796;2023-02-19T06:41:11;95589.19;;;4.52;99.98
52935;BME280;38802;50.198;19.796;2023-02-19T06:43:39;95587.36;;;4.51;99.94
52935;BME280;38802;50.198;19.796;2023-02-19T06:46:07;95589.38;;;4.52;99.97
52935;BME280;38802;50.198;19.796;2023-02-19T06:48:34;95585.45;;;4.54;99.93
52935;BME280;38802;50.198;19.796;2023-02-19T06:51:01;95586.11;;;4.57;99.98
52935;BME280;38802;50.198;19.796;2023-02-19T06:53:28;95587.44;;;4.55;99.96
52935;BME280;38802;50.198;19.796;2023-02-19T06:56:06;95584.48;;;4.56;99.92
52935;BME280;38802;50.198;19.796;2023-02-19T06:58:34;95585.33;;;4.56;99.99
52935;BME280;38802;50.198;19.796;2023-02-19T07:01:00;95586.92;;;4.55;99.99
52935;BME280;38802;50.198;19.796;2023-02-19T07:03:27;95581.29;;;4.59;100.00
52935;BME280;38802;50.198;19.796;2023-02-19T07:05:54;95578.08;;;4.63;100.00
52935;BME280;38802;50.198;19.796;2023-02-19T07:08:21;95579.05;;;4.62;100.00
52935;BME280;38802;50.198;19.796;2023-02-19T07:10:55;95571.41;;;4.65;99.99
52935;BME280;38802;50.198;19.796;2023-02-19T07:13:24;95569.83;;;4.66;99.97
52935;BME280;38802;50.198;19.796;2023-02-19T07:15:58;95565.11;;;4.67;99.80
52935;BME280;38802;50.198;19.796;2023-02-19T07:18:25;95566.83;;;4.67;99.91
52935;BME280;38802;50.198;19.796;2023-02-19T07:20:52;95556.65;;;4.69;99.80
52935;BME280;38802;50.198;19.796;2023-02-19T07:23:19;95560.60;;;4.72;99.85
52935;BME280;38802;50.198;19.796;2023-02-19T07:25:46;95562.39;;;4.74;99.82
52935;BME280;38802;50.198;19.796;2023-02-19T07:28:13;95558.73;;;4.74;99.80
52935;BME280;38802;50.198;19.796;2023-02-19T07:30:39;95556.91;;;4.76;99.97
52935;BME280;38802;50.198;19.796;2023-02-19T07:33:07;95557.42;;;4.81;99.91
52935;BME280;38802;50.198;19.796;2023-02-19T07:35:36;95560.45;;;4.85;99.98
52935;BME280;38802;50.198;19.796;2023-02-19T07:38:03;95561.04;;;4.86;99.90
52935;BME280;38802;50.198;19.796;2023-02-19T07:40:29;95565.78;;;4.87;99.97
52935;BME280;38802;50.198;19.796;2023-02-19T07:42:58;95561.95;;;4.88;99.94
52935;BME280;38802;50.198;19.796;2023-02-19T07:45:25;95559.25;;;4.89;100.00
52935;BME280;38802;50.198;19.796;2023-02-19T07:47:52;95554.86;;;4.93;99.98
52935;BME280;38802;50.198;19.796;2023-02-19T07:50:19;95558.34;;;4.95;99.97
52935;BME280;38802;50.198;19.796;2023-02-19T07:52:46;95555.95;;;4.99;100.00
52935;BME280;38802;50.198;19.796;2023-02-19T07:55:12;95555.92;;;5.02;100.00
52935;BME280;38802;50.198;19.796;2023-02-19T07:57:40;95559.00;;;5.02;99.99
52935;BME280;38802;50.198;19.796;2023-02-19T08:00:07;95555.19;;;5.03;99.99
52935;BME280;38802;50.198;19.796;2023-02-19T08:02:38;95555.40;;;5.02;100.00
52935;BME280;38802;50.198;19.796;2023-02-19T08:05:23;95552.86;;;5.01;100.00
52935;BME280;38802;50.198;19.796;2023-02-19T08:07:50;95547.98;;;5.00;99.99
52935;BME280;38802;50.198;19.796;2023-02-19T08:10:17;95547.76;;;4.98;100.00
52935;BME280;38802;50.198;19.796;2023-02-19T08:13:02;95542.48;;;4.97;100.00
52935;BME280;38802;50.198;19.796;2023-02-19T08:15:45;95546.66;;;4.99;100.00
52935;BME280;38802;50.198;19.796;2023-02-19T08:18:13;95549.13;;;4.98;100.00
52935;BME280;38802;50.198;19.796;2023-02-19T08:20:40;95549.97;;;5.01;100.00
52935;BME280;38802;50.198;19.796;2023-02-19T08:23:08;95552.02;;;5.03;100.00
52935;BME280;38802;50.198;19.796;2023-02-19T08:25:35;95554.63;;;5.06;100.00
52935;BME280;38802;50.198;19.796;2023-02-19T08:28:03;95551.00;;;5.11;100.00
52935;BME280;38802;50.198;19.796;2023-02-19T08:30:31;95553.36;;;5.11;100.00
52935;BME280;38802;50.198;19.796;2023-02-19T08:33:00;95557.85;;;5.14;100.00
52935;BME280;38802;50.198;19.796;2023-02-19T08:35:28;95556.62;;;5.16;100.00
52935;BME280;38802;50.198;19.796;2023-02-19T08:37:56;95566.20;;;5.17;100.00
52935;BME280;38802;50.198;19.796;2023-02-19T08:40:26;95563.14;;;5.19;100.00
52935;BME280;38802;50.198;19.796;2023-02-19T08:42:52;95571.34;;;5.17;100.00
52935;BME280;38802;50.198;19.796;2023-02-19T08:45:20;95570.07;;;5.18;100.00
52935;BME280;38802;50.198;19.796;2023-02-19T08:47:49;95568.65;;;5.19;100.00
52935;BME280;38802;50.198;19.796;2023-02-19T08:50:16;95568.79;;;5.17;100.00
52935;BME280;38802;50.198;19.796;2023-02-19T08:52:42;95570.86;;;5.20;100.00
52935;BME280;38802;50.198;19.796;2023-02-19T08:55:09;95569.09;;;5.20;100.00
52935;BME280;38802;50.198;19.796;2023-02-19T08:57:36;95572.58;;;5.17;99.99
52935;BME280;38802;50.198;19.796;2023-02-19T09:00:06;95576.47;;;5.13;100.00
52935;BME280;38802;50.198;19.796;2023-02-19T09:02:36;95573.59;;;5.10;99.97
52935;BME280;38802;50.198;19.796;2023-02-19T09:05:03;95575.95;;;5.06;99.96
52935;BME280;38802;50.198;19.796;2023-02-19T09:07:31;95570.09;;;5.06;99.83
52935;BME280;38802;50.198;19.796;2023-02-19T09:09:59;95571.04;;;5.02;99.81
52935;BME280;38802;50.198;19.796;2023-02-19T09:12:26;95576.40;;;4.97;99.68
52935;BME280;38802;50.198;19.796;2023-02-19T09:14:52;95579.10;;;4.96;99.68
52935;BME280;38802;50.198;19.796;2023-02-19T09:17:21;95579.27;;;4.95;99.68
52935;BME280;38802;50.198;19.796;2023-02-19T09:19:48;95579.23;;;4.96;99.70
52935;BME280;38802;50.198;19.796;2023-02-19T09:22:16;95577.66;;;4.94;99.69
52935;BME280;38802;50.198;19.796;2023-02-19T09:24:43;95578.66;;;4.95;99.64
52935;BME280;38802;50.198;19.796;2023-02-19T09:27:18;95579.23;;;4.96;99.70
52935;BME280;38802;50.198;19.796;2023-02-19T09:29:46;95590.55;;;4.92;99.71
52935;BME280;38802;50.198;19.796;2023-02-19T09:32:13;95590.55;;;4.92;99.62
52935;BME280;38802;50.198;19.796;2023-02-19T09:34:40;95587.25;;;4.88;99.71
52935;BME280;38802;50.198;19.796;2023-02-19T09:37:07;95586.73;;;4.83;99.37
52935;BME280;38802;50.198;19.796;2023-02-19T09:39:34;95580.37;;;4.81;99.45
52935;BME280;38802;50.198;19.796;2023-02-19T09:42:12;95582.08;;;4.78;99.27
52935;BME280;38802;50.198;19.796;2023-02-19T09:44:43;95584.34;;;4.78;99.36
52935;BME280;38802;50.198;19.796;2023-02-19T09:47:23;95583.43;;;4.79;99.37
52935;BME280;38802;50.198;19.796;2023-02-19T09:49:53;95586.56;;;4.78;99.17
52935;BME280;38802;50.198;19.796;2023-02-19T09:54:51;95587.34;;;4.76;98.96
52935;BME280;38802;50.198;19.796;2023-02-19T09:57:27;95589.80;;;4.75;98.99
52935;BME280;38802;50.198;19.796;2023-02-19T10:00:06;95588.39;;;4.73;98.95
52935;BME280;38802;50.198;19.796;2023-02-19T10:02:39;95589.56;;;4.71;98.81
52935;BME280;38802;50.198;19.796;2023-02-19T10:05:12;95592.56;;;4.68;99.02
52935;BME280;38802;50.198;19.796;2023-02-19T10:07:45;95599.34;;;4.67;98.92
52935;BME280;38802;50.198;19.796;2023-02-19T10:12:45;95605.56;;;4.64;98.88
52935;BME280;38802;50.198;19.796;2023-02-19T10:15:26;95608.91;;;4.63;98.86
52935;BME280;38802;50.198;19.796;2023-02-19T10:17:55;95615.18;;;4.64;98.69
52935;BME280;38802;50.198;19.796;2023-02-19T10:20:23;95620.14;;;4.65;98.95
52935;BME280;38802;50.198;19.796;2023-02-19T10:23:02;95622.48;;;4.65;98.82
52935;BME280;38802;50.198;19.796;2023-02-19T10:25:30;95625.84;;;4.67;98.90
52935;BME280;38802;50.198;19.796;2023-02-19T10:27:57;95631.48;;;4.67;98.68
52935;BME280;38802;50.198;19.796;2023-02-19T10:30:29;95637.42;;;4.66;98.58
52935;BME280;38802;50.198;19.796;2023-02-19T10:33:17;95643.81;;;4.65;98.57
52935;BME280;38802;50.198;19.796;2023-02-19T10:35:59;95654.77;;;4.54;97.74
52935;BME280;38802;50.198;19.796;2023-02-19T10:38:36;95659.33;;;4.37;97.43
52935;BME280;38802;50.198;19.796;2023-02-19T10:41:15;95666.80;;;4.26;97.60
52935;BME280;38802;50.198;19.796;2023-02-19T10:43:53;95673.23;;;4.06;97.38
52935;BME280;38802;50.198;19.796;2023-02-19T10:46:27;95676.85;;;3.91;97.00
52935;BME280;38802;50.198;19.796;2023-02-19T10:48:57;95676.41;;;3.79;97.06
52935;BME280;38802;50.198;19.796;2023-02-19T10:54:03;95680.21;;;3.62;96.91
52935;BME280;38802;50.198;19.796;2023-02-19T10:56:31;95684.27;;;3.50;97.01
52935;BME280;38802;50.198;19.796;2023-02-19T10:59:24;95680.34;;;3.41;96.94
52935;BME280;38802;50.198;19.796;2023-02-19T11:01:58;95685.69;;;3.35;96.73
52935;BME280;38802;50.198;19.796;2023-02-19T11:04:28;95693.52;;;3.31;96.68
52935;BME280;38802;50.198;19.796;2023-02-19T11:07:09;95697.64;;;3.28;96.68
52935;BME280;38802;50.198;19.796;2023-02-19T11:09:38;95697.45;;;3.23;96.72
52935;BME280;38802;50.198;19.796;2023-02-19T11:12:06;95695.97;;;3.16;96.34
52935;BME280;38802;50.198;19.796;2023-02-19T11:14:35;95693.61;;;3.19;96.82
52935;BME280;38802;50.198;19.796;2023-02-19T11:17:03;95699.61;;;3.19;96.61
52935;BME280;38802;50.198;19.796;2023-02-19T11:19:37;95689.67;;;3.19;96.60
52935;BME280;38802;50.198;19.796;2023-02-19T11:22:39;95688.56;;;3.14;96.17
52935;BME280;38802;50.198;19.796;2023-02-19T11:28:02;95692.96;;;3.10;96.35
52935;BME280;38802;50.198;19.796;2023-02-19T11:35:53;95711.37;;;3.08;96.48
52935;BME280;38802;50.198;19.796;2023-02-19T11:38:23;95715.20;;;3.08;96.18
52935;BME280;38802;50.198;19.796;2023-02-19T11:51:30;95736.69;;;3.21;96.12
52935;BME280;38802;50.198;19.796;2023-02-19T11:54:04;95743.58;;;3.18;96.15
52935;BME280;38802;50.198;19.796;2023-02-19T11:56:35;95744.06;;;3.13;96.08
52935;BME280;38802;50.198;19.796;2023-02-19T11:59:04;95741.36;;;3.10;96.22
52935;BME280;38802;50.198;19.796;2023-02-19T12:01:44;95739.55;;;3.08;96.01
52935;BME280;38802;50.198;19.796;2023-02-19T12:15:34;95762.11;;;2.78;95.91
52935;BME280;38802;50.198;19.796;2023-02-19T12:18:19;95761.52;;;2.76;95.24
52935;BME280;38802;50.198;19.796;2023-02-19T12:35:20;95794.55;;;2.57;95.34
52935;BME280;38802;50.198;19.796;2023-02-19T12:38:00;95791.11;;;2.57;95.46
52935;BME280;38802;50.198;19.796;2023-02-19T12:43:31;95796.82;;;2.62;95.05
52935;BME280;38802;50.198;19.796;2023-02-19T12:53:48;95802.33;;;2.62;95.43
52935;BME280;38802;50.198;19.796;2023-02-19T12:56:23;95804.27;;;2.64;95.35
52935;BME280;38802;50.198;19.796;2023-02-19T12:59:15;95802.27;;;2.60;95.04
52935;BME280;38802;50.198;19.796;2023-02-19T13:01:56;95802.93;;;2.54;94.87
52935;BME280;38802;50.198;19.796;2023-02-19T13:04:37;95806.36;;;2.48;94.94
52935;BME280;38802;50.198;19.796;2023-02-19T13:12:39;95810.75;;;2.35;95.16
52935;BME280;38802;50.198;19.796;2023-02-19T13:15:32;95815.55;;;2.31;95.09
52935;BME280;38802;50.198;19.796;2023-02-19T13:18:02;95822.64;;;2.28;95.00
52935;BME280;38802;50.198;19.796;2023-02-19T13:20:36;95829.25;;;2.29;95.17
52935;BME280;38802;50.198;19.796;2023-02-19T13:23:27;95829.83;;;2.31;95.11
52935;BME280;38802;50.198;19.796;2023-02-19T13:29:30;95837.98;;;2.35;95.40
52935;BME280;38802;50.198;19.796;2023-02-19T13:37:37;95853.69;;;2.27;95.17
52935;BME280;38802;50.198;19.796;2023-02-19T13:42:51;95871.25;;;2.19;95.24
52935;BME280;38802;50.198;19.796;2023-02-19T13:45:38;95871.76;;;2.16;95.05
52935;BME280;38802;50.198;19.796;2023-02-19T13:48:26;95877.39;;;2.13;94.96
52935;BME280;38802;50.198;19.796;2023-02-19T13:51:36;95881.89;;;2.09;95.22
52935;BME280;38802;50.198;19.796;2023-02-19T13:54:00;95886.20;;;2.06;94.77
52935;BME280;38802;50.198;19.796;2023-02-19T13:56:39;95889.67;;;2.02;94.69
52935;BME280;38802;50.198;19.796;2023-02-19T14:28:05;95924.73;;;1.97;94.54
52935;BME280;38802;50.198;19.796;2023-02-19T14:33:23;95933.96;;;1.84;94.13
52935;BME280;38802;50.198;19.796;2023-02-19T14:35:59;95939.96;;;1.81;94.28
52935;BME280;38802;50.198;19.796;2023-02-19T14:38:34;95943.09;;;1.77;94.42
52935;BME280;38802;50.198;19.796;2023-02-19T14:41:02;95953.81;;;1.75;94.21
52935;BME280;38802;50.198;19.796;2023-02-19T14:43:30;95960.05;;;1.73;94.05
52935;BME280;38802;50.198;19.796;2023-02-19T14:46:06;95967.20;;;1.70;93.97
52935;BME280;38802;50.198;19.796;2023-02-19T14:48:37;95975.75;;;1.64;93.68
52935;BME280;38802;50.198;19.796;2023-02-19T14:51:30;95975.65;;;1.63;93.78
52935;BME280;38802;50.198;19.796;2023-02-19T14:54:01;95976.55;;;1.55;93.63
52935;BME280;38802;50.198;19.796;2023-02-19T14:56:32;95976.13;;;1.50;93.69
52935;BME280;38802;50.198;19.796;2023-02-19T15:01:38;95988.16;;;1.42;94.01
52935;BME280;38802;50.198;19.796;2023-02-19T15:04:20;95985.19;;;1.44;93.89
52935;BME280;38802;50.198;19.796;2023-02-19T15:06:48;95990.30;;;1.41;93.85
52935;BME280;38802;50.198;19.796;2023-02-19T15:09:15;95993.77;;;1.40;93.72
52935;BME280;38802;50.198;19.796;2023-02-19T15:11:42;95998.90;;;1.37;93.83
52935;BME280;38802;50.198;19.796;2023-02-19T15:14:19;95998.67;;;1.38;94.04
52935;BME280;38802;50.198;19.796;2023-02-19T15:16:55;96005.58;;;1.50;93.96
52935;BME280;38802;50.198;19.796;2023-02-19T15:19:23;96012.98;;;1.46;93.75
52935;BME280;38802;50.198;19.796;2023-02-19T15:21:50;96017.77;;;1.42;93.69
52935;BME280;38802;50.198;19.796;2023-02-19T15:24:18;96017.79;;;1.35;93.38
52935;BME280;38802;50.198;19.796;2023-02-19T15:26:52;96023.15;;;1.30;93.23
52935;BME280;38802;50.198;19.796;2023-02-19T15:29:22;96031.39;;;1.30;93.01
52935;BME280;38802;50.198;19.796;2023-02-19T15:31:58;96034.70;;;1.24;92.99
52935;BME280;38802;50.198;19.796;2023-02-19T15:34:27;96036.86;;;1.22;92.97
52935;BME280;38802;50.198;19.796;2023-02-19T15:36:59;96038.02;;;1.20;93.19
52935;BME280;38802;50.198;19.796;2023-02-19T15:39:34;96036.25;;;1.25;93.15
52935;BME280;38802;50.198;19.796;2023-02-19T15:42:03;96042.40;;;1.25;92.91
52935;BME280;38802;50.198;19.796;2023-02-19T15:44:38;96050.66;;;1.20;93.03